createdAt,value
2022-10-19T00:00:00.000Z,16.39
2022-10-19T00:15:00.000Z,17.11
2022-10-19T00:30:00.000Z,16.75
2022-10-19T00:45:00.000Z,16.79
2022-10-19T01:00:00.000Z,17.24
2022-10-19T01:15:00.000Z,17.54
2022-10-19T01:30:00.000Z,18.45
2022-10-19T01:45:00.000Z,19.48
2022-10-19T02:15:00.000Z,17.5
2022-10-19T02:15:00.000Z,18.72
2022-10-19T02:45:00.000Z,19
2022-10-19T02:45:00.000Z,18.67
2022-10-19T03:00:00.000Z,19.57
2022-10-19T03:15:00.000Z,19.36
2022-10-19T03:30:00.000Z,19.24
2022-10-19T03:45:00.000Z,23.34
2022-10-19T04:00:00.000Z,24.39
2022-10-19T04:15:00.000Z,22.65
2022-10-19T04:30:00.000Z,21.73
2022-10-19T04:45:00.000Z,23.46
2022-10-19T05:00:00.000Z,24.6
2022-10-19T05:15:00.000Z,23.24
2022-10-19T05:30:00.000Z,25.54
2022-10-19T05:45:00.000Z,28.95
2022-10-19T06:00:00.000Z,31.09
2022-10-19T06:15:00.000Z,30.76
2022-10-19T06:30:00.000Z,31.12
2022-10-19T06:45:00.000Z,31.64
2022-10-19T07:00:00.000Z,29.26
2022-10-19T07:15:00.000Z,29.25
2022-10-19T07:30:00.000Z,32.2
2022-10-19T07:45:00.000Z,36.71
2022-10-19T08:00:00.000Z,36.56
2022-10-19T08:15:00.000Z,34.64
2022-10-19T08:30:00.000Z,31.35
2022-10-19T08:45:00.000Z,29.71
2022-10-19T09:00:00.000Z,30.12
2022-10-19T09:15:00.000Z,31.56
2022-10-19T09:30:00.000Z,30.55
2022-10-19T09:45:00.000Z,31.02
2022-10-19T10:00:00.000Z,29.82
2022-10-19T10:15:00.000Z,27.91
2022-10-19T10:30:00.000Z,28.27
2022-10-19T10:45:00.000Z,27.35
2022-10-19T11:00:00.000Z,23.96
2022-10-19T11:15:00.000Z,26.32
2022-10-19T11:30:00.000Z,29.6
2022-10-19T11:45:00.000Z,26.78
2022-10-19T12:00:00.000Z,23.41
2022-10-19T12:15:00.000Z,20.05
2022-10-19T12:30:00.000Z,19.22
2022-10-19T12:45:00.000Z,19.29
2022-10-19T13:00:00.000Z,20.65
2022-10-19T13:15:00.000Z,22.64
2022-10-19T13:30:00.000Z,23.2
2022-10-19T13:45:00.000Z,21.04
2022-10-19T14:00:00.000Z,21.46
2022-10-19T14:15:00.000Z,19.79
2022-10-19T14:30:00.000Z,18.45
2022-10-19T14:45:00.000Z,17.49
2022-10-19T15:00:00.000Z,16.67
2022-10-19T15:15:00.000Z,15.95
2022-10-19T15:30:00.000Z,16.73
2022-10-19T15:45:00.000Z,16.89
2022-10-19T16:00:00.000Z,17.12
2022-10-19T16:15:00.000Z,15.81
2022-10-19T16:30:00.000Z,15.14
2022-10-19T16:45:00.000Z,15.78
2022-10-19T17:00:00.000Z,17.92
2022-10-19T17:15:00.000Z,16.93
2022-10-19T17:30:00.000Z,18.67
2022-10-19T17:45:00.000Z,17.89
2022-10-19T18:00:00.000Z,22.33
2022-10-19T18:15:00.000Z,39.94
2022-10-19T18:30:00.000Z,28.67
2022-10-19T18:45:00.000Z,22.08
2022-10-19T19:00:00.000Z,25.15
2022-10-19T19:15:00.000Z,22.52
2022-10-19T19:30:00.000Z,24.08
2022-10-19T19:45:00.000Z,27.32
2022-10-19T20:00:00.000Z,27.12
2022-10-19T20:15:00.000Z,29.31
2022-10-19T20:30:00.000Z,38.08
2022-10-19T20:45:00.000Z,28.99
2022-10-19T21:00:00.000Z,27.2
2022-10-19T21:15:00.000Z,27.07
2022-10-19T21:30:00.000Z,34.15
2022-10-19T21:45:00.000Z,30.4
2022-10-19T22:00:00.000Z,28.68
2022-10-19T22:15:00.000Z,27.22
2022-10-19T22:30:00.000Z,31.95
2022-10-19T22:45:00.000Z,38.21
2022-10-19T23:00:00.000Z,40.59
2022-10-19T23:15:00.000Z,38.32
2022-10-19T23:30:00.000Z,33.67
2022-10-19T23:45:00.000Z,30.19
